East Rutherford, NJ

3:12 PM EDT on September 01, 2014 (GMT -0400)
Newark International | Change Station
CLOSE
Current Station
Airport
Location: Newark,
Elevation: 30 ft
Nearby Weather Stations

Elev 30 ft 40.68 °N, 74.17 °W | Updated 21 minutes ago

Mostly Cloudy
Mostly Cloudy
91 °F
Feels Like 94 °F
N
7
Wind Variable Wind from SW

Today
High -- | Low -- °F
--% Chance of Precip.
Yesterday
High -- | Low -- °F
Precip. -- in
6:23 AM 7:28 PM
Waxing Crescent, 43% visible
Pressure 29.94 in
Visibility 10.0 miles
Clouds Scattered Clouds 4200 ft
Mostly Cloudy 7000 ft
Mostly Cloudy 13000 ft
Mostly Cloudy 25000 ft
Heat Index 94 °F
Dew Point 67 °F
Humidity 45%
Rainfall 0.00 in
Snow Depth Not available.
UV 4 out of 12
Pollen 5.00 out of 12
Air Quality Not available.
Flu Activity Not available.
METAR KEWR 011851Z 23006KT 10SM SCT042 BKN070 BKN130 BKN250 33/19 A2994 RMK AO2 SLP138 T03280194 $

More Conditions Fewer Conditions

Pressure 29.94 in
Visibility 10.0 miles
Clouds Scattered Clouds 4200 ft
Mostly Cloudy 7000 ft
Mostly Cloudy 13000 ft
Mostly Cloudy 25000 ft
Heat Index 94 °F
Dew Point 67 °F
Humidity 45%
Rainfall 0.00 in
Snow Depth Not available.
UV 4 out of 12
Pollen 5.00 out of 12
Air Quality Not available.
Flu Activity Not available.
METAR KEWR 011851Z 23006KT 10SM SCT042 BKN070 BKN130 BKN250 33/19 A2994 RMK AO2 SLP138 T03280194 $

More Conditions Fewer Conditions

10-Day Weather Forecast

Almanac

Astronomy

Sep. 01, 2014 Rise Set
Actual Time 6:23 AM EDT 7:28 PM EDT
Civil Twilight 5:55 AM EDT 7:56 PM EDT
Nautical Twilight 5:21 AM EDT 8:30 PM EDT
Astronomical Twilight 4:46 AM EDT 9:05 PM EDT
Moon 1:09 PM EDT 11:25 PM EDT
Length of Visible Light 14h 01m
Length of Day
13h 05m
Tomorrow will be 2m 36s shorter.
Waxing Crescent, 43% of the Moon is Illuminated
Today
Waxing Crescent
Sep 2
First Quarter
Sep 8
Full
Sep 15
Last Quarter
Sep 24
New

Today's Extremes

State Highs State Lows

Community

WunderPhotos

Upload Photos

1,749,373 photos uploaded!

WunderBlogs® & News

Nearby

Snow Depth

Station Depth Elevation
No new snow has been reported.

Earthquake Activity

City Distance Mag. Time & Date
No recent earthquake activity has been reported nearby.
Minimum magnitude displayed is 2.5.

Coastal Water Temperatures

Place Temperature
Sandy Hook, NJ 77.0 °F
The Battery, NY 73.9 °F
Bergen Point West Reach, NJ 75.0 °F
Kings Point, NY 73.9 °F

Nearby Weather Stations